sensor_id;sensor_type;location;lat;lon;timestamp;P1;P2;P0
13030;PMS7003;6582;54.644;9.760;2023-04-24T00:00:02;83.4;67.2;
13030;PMS7003;6582;54.644;9.760;2023-04-24T00:10:07;83.0;66.8;
13030;PMS7003;6582;54.644;9.760;2023-04-24T00:15:01;84.1;67.1;
13030;PMS7003;6582;54.644;9.760;2023-04-24T00:20:01;83.4;66.6;
13030;PMS7003;6582;54.644;9.760;2023-04-24T00:25:01;82.3;65.4;
13030;PMS7003;6582;54.644;9.760;2023-04-24T00:30:01;82.1;65.2;
13030;PMS7003;6582;54.644;9.760;2023-04-24T00:35:02;82.8;65.9;
13030;PMS7003;6582;54.644;9.760;2023-04-24T00:40:01;81.7;65.1;
13030;PMS7003;6582;54.644;9.760;2023-04-24T00:45:01;81.5;64.9;
13030;PMS7003;6582;54.644;9.760;2023-04-24T00:50:03;81.9;65.7;
13030;PMS7003;6582;54.644;9.760;2023-04-24T00:55:01;82.7;66.4;
13030;PMS7003;6582;54.644;9.760;2023-04-24T01:00:01;83.7;67.8;
13030;PMS7003;6582;54.644;9.760;2023-04-24T01:05:01;86.2;71.2;
13030;PMS7003;6582;54.644;9.760;2023-04-24T01:10:06;89.7;75.6;
13030;PMS7003;6582;54.644;9.760;2023-04-24T01:15:02;92.2;79.4;
13030;PMS7003;6582;54.644;9.760;2023-04-24T01:20:01;94.8;83.4;
13030;PMS7003;6582;54.644;9.760;2023-04-24T01:30:01;101.9;92.0;
13030;PMS7003;6582;54.644;9.760;2023-04-24T01:35:01;107.5;99.1;
13030;PMS7003;6582;54.644;9.760;2023-04-24T01:40:01;112.4;104.7;
13030;PMS7003;6582;54.644;9.760;2023-04-24T01:50:02;118.8;111.0;
13030;PMS7003;6582;54.644;9.760;2023-04-24T01:55:02;121.4;113.4;
13030;PMS7003;6582;54.644;9.760;2023-04-24T02:00:02;119.9;111.7;
13030;PMS7003;6582;54.644;9.760;2023-04-24T02:05:02;124.1;116.3;
13030;PMS7003;6582;54.644;9.760;2023-04-24T02:10:02;121.2;113.1;
13030;PMS7003;6582;54.644;9.760;2023-04-24T02:15:01;115.5;108.1;
13030;PMS7003;6582;54.644;9.760;2023-04-24T02:20:02;111.4;103.7;
13030;PMS7003;6582;54.644;9.760;2023-04-24T02:25:01;106.3;98.9;
13030;PMS7003;6582;54.644;9.760;2023-04-24T02:30:01;95.4;86.1;
13030;PMS7003;6582;54.644;9.760;2023-04-24T02:35:03;90.9;79.6;
13030;PMS7003;6582;54.644;9.760;2023-04-24T02:40:03;88.0;74.9;
13030;PMS7003;6582;54.644;9.760;2023-04-24T02:45:03;86.5;72.1;
13030;PMS7003;6582;54.644;9.760;2023-04-24T02:50:02;85.6;69.8;
13030;PMS7003;6582;54.644;9.760;2023-04-24T03:00:01;85.8;69.8;
13030;PMS7003;6582;54.644;9.760;2023-04-24T03:05:02;85.9;70.9;
13030;PMS7003;6582;54.644;9.760;2023-04-24T03:10:03;84.2;69.6;
13030;PMS7003;6582;54.644;9.760;2023-04-24T03:15:06;83.4;68.8;
13030;PMS7003;6582;54.644;9.760;2023-04-24T03:20:07;82.8;67.8;
13030;PMS7003;6582;54.644;9.760;2023-04-24T03:25:07;81.8;66.1;
13030;PMS7003;6582;54.644;9.760;2023-04-24T03:30:03;80.2;63.7;
13030;PMS7003;6582;54.644;9.760;2023-04-24T03:35:02;81.0;63.4;
13030;PMS7003;6582;54.644;9.760;2023-04-24T03:40:02;81.4;63.9;
13030;PMS7003;6582;54.644;9.760;2023-04-24T03:45:01;81.5;63.5;
13030;PMS7003;6582;54.644;9.760;2023-04-24T03:50:02;81.4;63.8;
13030;PMS7003;6582;54.644;9.760;2023-04-24T04:00:07;82.6;64.6;
13030;PMS7003;6582;54.644;9.760;2023-04-24T04:10:02;82.5;64.2;
13030;PMS7003;6582;54.644;9.760;2023-04-24T04:15:02;82.8;64.7;
13030;PMS7003;6582;54.644;9.760;2023-04-24T04:20:07;82.6;64.8;
13030;PMS7003;6582;54.644;9.760;2023-04-24T04:25:02;82.0;64.4;
13030;PMS7003;6582;54.644;9.760;2023-04-24T04:30:02;80.6;63.4;
13030;PMS7003;6582;54.644;9.760;2023-04-24T04:35:03;79.7;63.0;
13030;PMS7003;6582;54.644;9.760;2023-04-24T04:40:02;78.4;62.0;
13030;PMS7003;6582;54.644;9.760;2023-04-24T04:45:02;81.4;65.2;
13030;PMS7003;6582;54.644;9.760;2023-04-24T04:50:02;80.1;64.2;
13030;PMS7003;6582;54.644;9.760;2023-04-24T05:00:02;79.8;64.2;
13030;PMS7003;6582;54.644;9.760;2023-04-24T05:05:02;79.4;63.5;
13030;PMS7003;6582;54.644;9.760;2023-04-24T05:10:02;78.5;62.5;
13030;PMS7003;6582;54.644;9.760;2023-04-24T05:15:03;74.6;58.2;
13030;PMS7003;6582;54.644;9.760;2023-04-24T05:20:02;75.5;59.2;
13030;PMS7003;6582;54.644;9.760;2023-04-24T05:25:02;76.4;59.9;
13030;PMS7003;6582;54.644;9.760;2023-04-24T05:30:01;79.3;64.3;
13030;PMS7003;6582;54.644;9.760;2023-04-24T05:35:02;79.8;64.8;
13030;PMS7003;6582;54.644;9.760;2023-04-24T05:40:02;81.0;65.8;
13030;PMS7003;6582;54.644;9.760;2023-04-24T05:45:02;82.2;67.2;
13030;PMS7003;6582;54.644;9.760;2023-04-24T05:50:02;83.7;69.2;
13030;PMS7003;6582;54.644;9.760;2023-04-24T05:55:02;82.7;67.7;
13030;PMS7003;6582;54.644;9.760;2023-04-24T06:00:02;84.5;70.0;
13030;PMS7003;6582;54.644;9.760;2023-04-24T06:05:02;85.4;70.9;
13030;PMS7003;6582;54.644;9.760;2023-04-24T06:10:02;85.5;70.4;
13030;PMS7003;6582;54.644;9.760;2023-04-24T06:15:03;85.4;70.0;
13030;PMS7003;6582;54.644;9.760;2023-04-24T06:20:02;85.1;69.2;
13030;PMS7003;6582;54.644;9.760;2023-04-24T06:25:02;84.9;68.6;
13030;PMS7003;6582;54.644;9.760;2023-04-24T06:30:02;84.1;68.3;
13030;PMS7003;6582;54.644;9.760;2023-04-24T06:40:02;83.8;68.4;
13030;PMS7003;6582;54.644;9.760;2023-04-24T06:45:02;83.6;68.5;
13030;PMS7003;6582;54.644;9.760;2023-04-24T06:55:02;84.4;69.2;
13030;PMS7003;6582;54.644;9.760;2023-04-24T07:00:01;84.3;69.4;
13030;PMS7003;6582;54.644;9.760;2023-04-24T07:05:01;84.6;70.4;
13030;PMS7003;6582;54.644;9.760;2023-04-24T07:20:02;84.6;70.5;
13030;PMS7003;6582;54.644;9.760;2023-04-24T07:25:01;85.3;72.0;
13030;PMS7003;6582;54.644;9.760;2023-04-24T07:30:03;85.0;71.5;
13030;PMS7003;6582;54.644;9.760;2023-04-24T07:40:02;85.9;72.3;
13030;PMS7003;6582;54.644;9.760;2023-04-24T07:45:01;86.4;72.9;
13030;PMS7003;6582;54.644;9.760;2023-04-24T07:50:02;86.6;72.6;
13030;PMS7003;6582;54.644;9.760;2023-04-24T07:55:02;87.6;74.2;
13030;PMS7003;6582;54.644;9.760;2023-04-24T08:05:03;87.0;74.0;
13030;PMS7003;6582;54.644;9.760;2023-04-24T08:10:06;89.5;77.1;
13030;PMS7003;6582;54.644;9.760;2023-04-24T08:15:01;89.2;76.6;
13030;PMS7003;6582;54.644;9.760;2023-04-24T08:20:02;87.8;74.2;
13030;PMS7003;6582;54.644;9.760;2023-04-24T08:30:07;85.2;70.6;
13030;PMS7003;6582;54.644;9.760;2023-04-24T08:35:01;84.0;68.5;
13030;PMS7003;6582;54.644;9.760;2023-04-24T08:40:05;79.1;62.0;
13030;PMS7003;6582;54.644;9.760;2023-04-24T08:45:01;77.8;60.0;
13030;PMS7003;6582;54.644;9.760;2023-04-24T08:50:03;78.0;60.2;
13030;PMS7003;6582;54.644;9.760;2023-04-24T08:55:03;80.1;62.4;
13030;PMS7003;6582;54.644;9.760;2023-04-24T09:00:06;80.7;62.8;
13030;PMS7003;6582;54.644;9.760;2023-04-24T09:05:01;80.1;62.6;
13030;PMS7003;6582;54.644;9.760;2023-04-24T09:10:02;79.7;62.7;
13030;PMS7003;6582;54.644;9.760;2023-04-24T09:15:02;78.1;61.4;
13030;PMS7003;6582;54.644;9.760;2023-04-24T09:25:07;76.8;59.9;
13030;PMS7003;6582;54.644;9.760;2023-04-24T09:30:02;76.5;60.0;
13030;PMS7003;6582;54.644;9.760;2023-04-24T09:35:11;76.8;60.3;
13030;PMS7003;6582;54.644;9.760;2023-04-24T09:55:01;82.2;62.8;
13030;PMS7003;6582;54.644;9.760;2023-04-24T10:00:01;84.1;67.7;
13030;PMS7003;6582;54.644;9.760;2023-04-24T10:05:02;86.7;73.3;
13030;PMS7003;6582;54.644;9.760;2023-04-24T10:10:01;86.6;72.8;
13030;PMS7003;6582;54.644;9.760;2023-04-24T10:15:01;86.0;72.0;
13030;PMS7003;6582;54.644;9.760;2023-04-24T10:20:01;85.5;72.4;
13030;PMS7003;6582;54.644;9.760;2023-04-24T10:25:06;85.6;72.7;
13030;PMS7003;6582;54.644;9.760;2023-04-24T10:30:01;84.5;70.6;
13030;PMS7003;6582;54.644;9.760;2023-04-24T10:35:03;84.1;70.4;
13030;PMS7003;6582;54.644;9.760;2023-04-24T10:40:01;84.3;71.0;
13030;PMS7003;6582;54.644;9.760;2023-04-24T10:45:05;85.8;72.5;
13030;PMS7003;6582;54.644;9.760;2023-04-24T10:50:01;88.4;75.0;
13030;PMS7003;6582;54.644;9.760;2023-04-24T10:55:06;88.7;75.2;
13030;PMS7003;6582;54.644;9.760;2023-04-24T11:15:04;84.4;67.4;
13030;PMS7003;6582;54.644;9.760;2023-04-24T11:20:42;86.1;70.7;
13030;PMS7003;6582;54.644;9.760;2023-04-24T11:45:12;83.4;65.8;
13030;PMS7003;6582;54.644;9.760;2023-04-24T11:55:22;82.6;65.5;
13030;PMS7003;6582;54.644;9.760;2023-04-24T12:15:06;83.4;67.6;
13030;PMS7003;6582;54.644;9.760;2023-04-24T12:20:04;82.9;67.5;
13030;PMS7003;6582;54.644;9.760;2023-04-24T12:25:03;82.5;66.2;
13030;PMS7003;6582;54.644;9.760;2023-04-24T12:30:03;81.4;65.2;
13030;PMS7003;6582;54.644;9.760;2023-04-24T12:35:03;80.6;64.3;
13030;PMS7003;6582;54.644;9.760;2023-04-24T12:40:04;80.1;63.2;
13030;PMS7003;6582;54.644;9.760;2023-04-24T12:45:05;80.0;62.9;
13030;PMS7003;6582;54.644;9.760;2023-04-24T12:50:02;78.8;62.0;
13030;PMS7003;6582;54.644;9.760;2023-04-24T12:55:02;78.7;61.6;
13030;PMS7003;6582;54.644;9.760;2023-04-24T13:00:02;79.7;62.0;
13030;PMS7003;6582;54.644;9.760;2023-04-24T13:05:01;80.0;62.7;
13030;PMS7003;6582;54.644;9.760;2023-04-24T13:10:02;80.2;62.7;
13030;PMS7003;6582;54.644;9.760;2023-04-24T13:15:02;81.2;63.2;
13030;PMS7003;6582;54.644;9.760;2023-04-24T13:20:02;81.9;64.6;
13030;PMS7003;6582;54.644;9.760;2023-04-24T13:25:07;82.2;65.1;
13030;PMS7003;6582;54.644;9.760;2023-04-24T13:30:02;83.1;67.0;
13030;PMS7003;6582;54.644;9.760;2023-04-24T13:35:03;82.6;66.9;
13030;PMS7003;6582;54.644;9.760;2023-04-24T13:40:03;82.2;67.0;
13030;PMS7003;6582;54.644;9.760;2023-04-24T13:45:26;82.1;66.2;
13030;PMS7003;6582;54.644;9.760;2023-04-24T13:50:02;80.7;65.0;
13030;PMS7003;6582;54.644;9.760;2023-04-24T13:55:02;79.6;63.2;
13030;PMS7003;6582;54.644;9.760;2023-04-24T14:00:02;79.5;62.5;
13030;PMS7003;6582;54.644;9.760;2023-04-24T14:05:02;79.6;62.2;
13030;PMS7003;6582;54.644;9.760;2023-04-24T14:10:02;79.2;61.9;
13030;PMS7003;6582;54.644;9.760;2023-04-24T14:15:02;83.3;66.3;
13030;PMS7003;6582;54.644;9.760;2023-04-24T14:20:02;82.7;65.2;
13030;PMS7003;6582;54.644;9.760;2023-04-24T14:25:06;82.4;65.1;
13030;PMS7003;6582;54.644;9.760;2023-04-24T14:30:05;83.3;65.6;
13030;PMS7003;6582;54.644;9.760;2023-04-24T14:35:07;82.7;65.1;
13030;PMS7003;6582;54.644;9.760;2023-04-24T14:40:07;78.9;61.3;
13030;PMS7003;6582;54.644;9.760;2023-04-24T14:45:02;80.0;62.9;
13030;PMS7003;6582;54.644;9.760;2023-04-24T14:50:02;82.1;66.6;
13030;PMS7003;6582;54.644;9.760;2023-04-24T14:55:02;89.1;76.6;
13030;PMS7003;6582;54.644;9.760;2023-04-24T15:00:07;97.2;86.8;
13030;PMS7003;6582;54.644;9.760;2023-04-24T15:05:07;97.7;87.0;
13030;PMS7003;6582;54.644;9.760;2023-04-24T15:10:07;97.0;86.0;
13030;PMS7003;6582;54.644;9.760;2023-04-24T15:15:01;97.5;86.4;
13030;PMS7003;6582;54.644;9.760;2023-04-24T15:20:07;89.2;75.6;
13030;PMS7003;6582;54.644;9.760;2023-04-24T15:25:02;83.5;68.6;
13030;PMS7003;6582;54.644;9.760;2023-04-24T15:30:01;83.9;68.7;
13030;PMS7003;6582;54.644;9.760;2023-04-24T15:35:14;88.4;75.6;
13030;PMS7003;6582;54.644;9.760;2023-04-24T15:40:02;89.8;77.8;
13030;PMS7003;6582;54.644;9.760;2023-04-24T15:45:02;97.2;87.6;
13030;PMS7003;6582;54.644;9.760;2023-04-24T15:50:02;95.0;85.0;
13030;PMS7003;6582;54.644;9.760;2023-04-24T15:55:02;94.2;84.5;
13030;PMS7003;6582;54.644;9.760;2023-04-24T16:00:07;88.9;76.7;
13030;PMS7003;6582;54.644;9.760;2023-04-24T16:05:07;83.6;69.3;
13030;PMS7003;6582;54.644;9.760;2023-04-24T16:10:08;81.2;64.8;
13030;PMS7003;6582;54.644;9.760;2023-04-24T16:15:02;89.2;74.0;
13030;PMS7003;6582;54.644;9.760;2023-04-24T16:20:02;97.3;83.7;
13030;PMS7003;6582;54.644;9.760;2023-04-24T16:25:01;100.8;88.4;
13030;PMS7003;6582;54.644;9.760;2023-04-24T16:30:02;103.7;90.6;
13030;PMS7003;6582;54.644;9.760;2023-04-24T16:35:01;105.1;93.6;
13030;PMS7003;6582;54.644;9.760;2023-04-24T16:40:07;105.8;94.6;
13030;PMS7003;6582;54.644;9.760;2023-04-24T16:45:02;120.5;110.0;
13030;PMS7003;6582;54.644;9.760;2023-04-24T16:50:03;136.5;127.8;
13030;PMS7003;6582;54.644;9.760;2023-04-24T16:55:02;138.8;132.2;
13030;PMS7003;6582;54.644;9.760;2023-04-24T17:00:02;140.6;134.4;
13030;PMS7003;6582;54.644;9.760;2023-04-24T17:05:02;141.8;137.0;
13030;PMS7003;6582;54.644;9.760;2023-04-24T17:10:02;143.0;139.3;
13030;PMS7003;6582;54.644;9.760;2023-04-24T17:15:02;131.0;127.4;
13030;PMS7003;6582;54.644;9.760;2023-04-24T17:20:24;130.4;127.6;
13030;PMS7003;6582;54.644;9.760;2023-04-24T17:25:01;125.6;121.6;
13030;PMS7003;6582;54.644;9.760;2023-04-24T17:30:07;120.0;115.1;
13030;PMS7003;6582;54.644;9.760;2023-04-24T17:35:02;100.9;95.4;
13030;PMS7003;6582;54.644;9.760;2023-04-24T17:40:02;98.6;93.0;
13030;PMS7003;6582;54.644;9.760;2023-04-24T17:45:02;98.3;92.2;
13030;PMS7003;6582;54.644;9.760;2023-04-24T17:50:01;97.2;90.1;
13030;PMS7003;6582;54.644;9.760;2023-04-24T17:55:01;95.7;87.6;
13030;PMS7003;6582;54.644;9.760;2023-04-24T18:00:02;94.9;85.7;
13030;PMS7003;6582;54.644;9.760;2023-04-24T18:05:07;92.6;81.1;
13030;PMS7003;6582;54.644;9.760;2023-04-24T18:10:07;93.9;83.5;
13030;PMS7003;6582;54.644;9.760;2023-04-24T18:15:09;95.8;87.0;
13030;PMS7003;6582;54.644;9.760;2023-04-24T18:20:09;101.7;95.1;
13030;PMS7003;6582;54.644;9.760;2023-04-24T18:30:02;103.9;98.6;
13030;PMS7003;6582;54.644;9.760;2023-04-24T18:35:02;110.6;108.0;
13030;PMS7003;6582;54.644;9.760;2023-04-24T18:45:02;111.3;108.8;
13030;PMS7003;6582;54.644;9.760;2023-04-24T18:50:06;113.4;111.3;
13030;PMS7003;6582;54.644;9.760;2023-04-24T18:55:05;107.9;104.0;
13030;PMS7003;6582;54.644;9.760;2023-04-24T19:00:08;104.2;98.8;
13030;PMS7003;6582;54.644;9.760;2023-04-24T19:05:07;98.0;90.5;
13030;PMS7003;6582;54.644;9.760;2023-04-24T19:10:07;95.1;85.8;
13030;PMS7003;6582;54.644;9.760;2023-04-24T19:20:02;93.3;83.8;
13030;PMS7003;6582;54.644;9.760;2023-04-24T19:25:01;93.4;84.0;
13030;PMS7003;6582;54.644;9.760;2023-04-24T19:30:02;94.5;86.3;
13030;PMS7003;6582;54.644;9.760;2023-04-24T19:35:07;98.1;91.7;
13030;PMS7003;6582;54.644;9.760;2023-04-24T19:40:07;100.1;95.7;
13030;PMS7003;6582;54.644;9.760;2023-04-24T19:45:01;98.8;93.6;
13030;PMS7003;6582;54.644;9.760;2023-04-24T19:50:11;99.6;95.2;
13030;PMS7003;6582;54.644;9.760;2023-04-24T19:55:07;99.7;94.8;
13030;PMS7003;6582;54.644;9.760;2023-04-24T20:00:03;98.0;92.8;
13030;PMS7003;6582;54.644;9.760;2023-04-24T20:05:07;97.9;92.8;
13030;PMS7003;6582;54.644;9.760;2023-04-24T20:15:02;98.8;94.5;
13030;PMS7003;6582;54.644;9.760;2023-04-24T20:20:02;97.3;91.5;
13030;PMS7003;6582;54.644;9.760;2023-04-24T20:25:07;96.6;90.7;
13030;PMS7003;6582;54.644;9.760;2023-04-24T20:30:02;94.6;86.6;
13030;PMS7003;6582;54.644;9.760;2023-04-24T20:35:02;93.7;84.2;
13030;PMS7003;6582;54.644;9.760;2023-04-24T20:40:07;94.1;84.8;
13030;PMS7003;6582;54.644;9.760;2023-04-24T20:45:02;96.2;88.6;
13030;PMS7003;6582;54.644;9.760;2023-04-24T20:55:08;96.1;87.9;
13030;PMS7003;6582;54.644;9.760;2023-04-24T21:00:03;97.1;89.8;
13030;PMS7003;6582;54.644;9.760;2023-04-24T21:05:12;97.2;89.8;
13030;PMS7003;6582;54.644;9.760;2023-04-24T21:10:02;96.9;88.8;
13030;PMS7003;6582;54.644;9.760;2023-04-24T21:15:06;100.4;92.6;
13030;PMS7003;6582;54.644;9.760;2023-04-24T21:20:07;105.8;100.0;
13030;PMS7003;6582;54.644;9.760;2023-04-24T21:25:07;106.0;100.3;
13030;PMS7003;6582;54.644;9.760;2023-04-24T21:30:10;107.5;101.5;
13030;PMS7003;6582;54.644;9.760;2023-04-24T21:35:03;108.8;102.9;
13030;PMS7003;6582;54.644;9.760;2023-04-24T21:40:02;105.9;99.9;
13030;PMS7003;6582;54.644;9.760;2023-04-24T21:50:07;104.5;98.4;
13030;PMS7003;6582;54.644;9.760;2023-04-24T21:55:07;102.9;95.9;
13030;PMS7003;6582;54.644;9.760;2023-04-24T22:00:02;99.9;92.2;
13030;PMS7003;6582;54.644;9.760;2023-04-24T22:05:13;98.6;91.4;
13030;PMS7003;6582;54.644;9.760;2023-04-24T22:10:07;96.5;88.2;
13030;PMS7003;6582;54.644;9.760;2023-04-24T22:20:06;91.6;80.8;
13030;PMS7003;6582;54.644;9.760;2023-04-24T22:25:02;93.5;83.9;
13030;PMS7003;6582;54.644;9.760;2023-04-24T22:30:06;95.4;87.0;
13030;PMS7003;6582;54.644;9.760;2023-04-24T22:35:02;101.4;94.1;
13030;PMS7003;6582;54.644;9.760;2023-04-24T22:45:02;123.3;117.7;
13030;PMS7003;6582;54.644;9.760;2023-04-24T22:50:06;141.6;138.0;
13030;PMS7003;6582;54.644;9.760;2023-04-24T22:55:02;156.0;153.6;
13030;PMS7003;6582;54.644;9.760;2023-04-24T23:00:06;167.3;166.6;
13030;PMS7003;6582;54.644;9.760;2023-04-24T23:05:07;159.4;156.3;
13030;PMS7003;6582;54.644;9.760;2023-04-24T23:10:06;159.2;156.2;
13030;PMS7003;6582;54.644;9.760;2023-04-24T23:15:11;158.0;155.5;
13030;PMS7003;6582;54.644;9.760;2023-04-24T23:20:08;142.1;138.1;
13030;PMS7003;6582;54.644;9.760;2023-04-24T23:25:08;144.3;140.2;
13030;PMS7003;6582;54.644;9.760;2023-04-24T23:35:06;149.7;147.3;
13030;PMS7003;6582;54.644;9.760;2023-04-24T23:40:01;125.7;120.6;
13030;PMS7003;6582;54.644;9.760;2023-04-24T23:45:12;109.0;102.1;
13030;PMS7003;6582;54.644;9.760;2023-04-24T23:50:04;103.8;96.6;
13030;PMS7003;6582;54.644;9.760;2023-04-24T23:55:07;96.2;89.2;
